sensor_id;sensor_type;location;lat;lon;timestamp;P1;durP1;ratioP1;P2;durP2;ratioP2
52434;SDS011;38354;52.892;6.148;2022-12-29T04:00:45;4.53;;;1.30;;
52434;SDS011;38354;52.892;6.148;2022-12-29T04:03:11;6.20;;;1.35;;
52434;SDS011;38354;52.892;6.148;2022-12-29T04:05:36;6.50;;;1.27;;
52434;SDS011;38354;52.892;6.148;2022-12-29T04:08:02;5.18;;;1.10;;
52434;SDS011;38354;52.892;6.148;2022-12-29T04:10:27;4.45;;;1.27;;
52434;SDS011;38354;52.892;6.148;2022-12-29T04:12:53;4.47;;;1.27;;
52434;SDS011;38354;52.892;6.148;2022-12-29T04:15:19;6.20;;;1.25;;
52434;SDS011;38354;52.892;6.148;2022-12-29T04:17:44;5.28;;;1.30;;
52434;SDS011;38354;52.892;6.148;2022-12-29T04:20:10;2.90;;;0.98;;
52434;SDS011;38354;52.892;6.148;2022-12-29T04:23:12;2.67;;;0.80;;
52434;SDS011;38354;52.892;6.148;2022-12-29T04:25:37;3.72;;;0.93;;
52434;SDS011;38354;52.892;6.148;2022-12-29T04:28:03;4.10;;;0.80;;
52434;SDS011;38354;52.892;6.148;2022-12-29T04:30:28;2.97;;;0.80;;
52434;SDS011;38354;52.892;6.148;2022-12-29T04:32:54;4.13;;;0.80;;
52434;SDS011;38354;52.892;6.148;2022-12-29T04:35:20;3.28;;;1.08;;
52434;SDS011;38354;52.892;6.148;2022-12-29T04:37:46;4.47;;;1.00;;
52434;SDS011;38354;52.892;6.148;2022-12-29T04:40:11;5.35;;;1.40;;
52434;SDS011;38354;52.892;6.148;2022-12-29T04:42:37;3.95;;;1.05;;
52434;SDS011;38354;52.892;6.148;2022-12-29T04:45:04;9.75;;;2.30;;
52434;SDS011;38354;52.892;6.148;2022-12-29T04:47:30;4.95;;;1.20;;
52434;SDS011;38354;52.892;6.148;2022-12-29T04:49:56;5.28;;;1.40;;
52434;SDS011;38354;52.892;6.148;2022-12-29T04:52:21;5.85;;;1.40;;
52434;SDS011;38354;52.892;6.148;2022-12-29T04:54:47;4.95;;;1.30;;
52434;SDS011;38354;52.892;6.148;2022-12-29T04:57:13;3.20;;;1.33;;
52434;SDS011;38354;52.892;6.148;2022-12-29T04:59:38;6.57;;;1.10;;
52434;SDS011;38354;52.892;6.148;2022-12-29T05:02:04;5.72;;;1.35;;
52434;SDS011;38354;52.892;6.148;2022-12-29T05:04:29;7.22;;;1.52;;
52434;SDS011;38354;52.892;6.148;2022-12-29T05:06:56;7.03;;;1.17;;
52434;SDS011;38354;52.892;6.148;2022-12-29T05:09:22;10.65;;;1.75;;
52434;SDS011;38354;52.892;6.148;2022-12-29T05:11:48;8.77;;;1.65;;
52434;SDS011;38354;52.892;6.148;2022-12-29T05:14:14;13.32;;;2.00;;
52434;SDS011;38354;52.892;6.148;2022-12-29T05:16:40;11.80;;;1.65;;
52434;SDS011;38354;52.892;6.148;2022-12-29T05:19:06;13.52;;;3.25;;
52434;SDS011;38354;52.892;6.148;2022-12-29T05:21:31;9.43;;;1.80;;
52434;SDS011;38354;52.892;6.148;2022-12-29T05:23:57;11.35;;;1.73;;
52434;SDS011;38354;52.892;6.148;2022-12-29T05:26:22;11.05;;;1.40;;
52434;SDS011;38354;52.892;6.148;2022-12-29T05:28:48;9.68;;;2.28;;
52434;SDS011;38354;52.892;6.148;2022-12-29T05:31:14;7.63;;;1.50;;
52434;SDS011;38354;52.892;6.148;2022-12-29T05:33:39;15.25;;;2.17;;
52434;SDS011;38354;52.892;6.148;2022-12-29T05:36:05;8.32;;;1.40;;
52434;SDS011;38354;52.892;6.148;2022-12-29T05:38:32;11.02;;;1.63;;
52434;SDS011;38354;52.892;6.148;2022-12-29T05:40:59;15.15;;;2.45;;
52434;SDS011;38354;52.892;6.148;2022-12-29T05:43:25;9.63;;;2.20;;
52434;SDS011;38354;52.892;6.148;2022-12-29T05:45:50;8.35;;;1.25;;
52434;SDS011;38354;52.892;6.148;2022-12-29T05:48:18;8.32;;;1.35;;
52434;SDS011;38354;52.892;6.148;2022-12-29T05:50:47;10.48;;;2.17;;
52434;SDS011;38354;52.892;6.148;2022-12-29T05:53:13;11.50;;;2.40;;
52434;SDS011;38354;52.892;6.148;2022-12-29T05:55:39;7.30;;;1.90;;
52434;SDS011;38354;52.892;6.148;2022-12-29T05:58:04;7.78;;;1.33;;
52434;SDS011;38354;52.892;6.148;2022-12-29T06:00:30;5.65;;;1.52;;
52434;SDS011;38354;52.892;6.148;2022-12-29T06:02:56;8.20;;;1.13;;
52434;SDS011;38354;52.892;6.148;2022-12-29T06:05:21;6.40;;;1.23;;
52434;SDS011;38354;52.892;6.148;2022-12-29T06:07:47;12.52;;;1.65;;
52434;SDS011;38354;52.892;6.148;2022-12-29T06:10:12;8.50;;;1.63;;
52434;SDS011;38354;52.892;6.148;2022-12-29T06:12:38;8.52;;;1.45;;
52434;SDS011;38354;52.892;6.148;2022-12-29T06:15:04;11.65;;;1.60;;
52434;SDS011;38354;52.892;6.148;2022-12-29T06:17:30;10.85;;;2.00;;
52434;SDS011;38354;52.892;6.148;2022-12-29T06:19:56;11.93;;;2.70;;
52434;SDS011;38354;52.892;6.148;2022-12-29T06:22:21;15.23;;;2.80;;
52434;SDS011;38354;52.892;6.148;2022-12-29T06:24:47;11.38;;;2.05;;
52434;SDS011;38354;52.892;6.148;2022-12-29T06:27:12;13.35;;;2.38;;
52434;SDS011;38354;52.892;6.148;2022-12-29T06:29:39;13.50;;;2.42;;
52434;SDS011;38354;52.892;6.148;2022-12-29T06:32:05;17.52;;;2.30;;
52434;SDS011;38354;52.892;6.148;2022-12-29T06:34:31;9.55;;;1.95;;
52434;SDS011;38354;52.892;6.148;2022-12-29T06:36:57;10.70;;;1.50;;
52434;SDS011;38354;52.892;6.148;2022-12-29T06:39:23;9.68;;;1.60;;
52434;SDS011;38354;52.892;6.148;2022-12-29T06:41:51;10.18;;;1.90;;
52434;SDS011;38354;52.892;6.148;2022-12-29T06:44:17;11.48;;;1.80;;
52434;SDS011;38354;52.892;6.148;2022-12-29T06:46:43;9.70;;;1.55;;
52434;SDS011;38354;52.892;6.148;2022-12-29T06:49:08;10.13;;;1.70;;
52434;SDS011;38354;52.892;6.148;2022-12-29T06:51:34;8.55;;;1.08;;
52434;SDS011;38354;52.892;6.148;2022-12-29T06:54:00;9.57;;;1.75;;
52434;SDS011;38354;52.892;6.148;2022-12-29T06:56:26;10.35;;;1.60;;
52434;SDS011;38354;52.892;6.148;2022-12-29T06:58:51;11.80;;;2.20;;
52434;SDS011;38354;52.892;6.148;2022-12-29T07:01:17;13.75;;;1.92;;
52434;SDS011;38354;52.892;6.148;2022-12-29T07:03:43;12.13;;;1.85;;
52434;SDS011;38354;52.892;6.148;2022-12-29T07:06:08;10.30;;;1.67;;
52434;SDS011;38354;52.892;6.148;2022-12-29T07:08:34;11.43;;;1.40;;
52434;SDS011;38354;52.892;6.148;2022-12-29T07:11:00;12.88;;;1.85;;
52434;SDS011;38354;52.892;6.148;2022-12-29T07:13:26;10.40;;;1.80;;
52434;SDS011;38354;52.892;6.148;2022-12-29T07:15:51;12.43;;;2.67;;
52434;SDS011;38354;52.892;6.148;2022-12-29T07:18:17;6.75;;;1.55;;
52434;SDS011;38354;52.892;6.148;2022-12-29T07:20:43;15.07;;;2.67;;
52434;SDS011;38354;52.892;6.148;2022-12-29T07:23:09;13.10;;;2.03;;
52434;SDS011;38354;52.892;6.148;2022-12-29T07:25:34;9.77;;;2.78;;
52434;SDS011;38354;52.892;6.148;2022-12-29T07:28:01;16.27;;;2.38;;
52434;SDS011;38354;52.892;6.148;2022-12-29T07:30:27;11.25;;;2.03;;
52434;SDS011;38354;52.892;6.148;2022-12-29T07:32:53;11.10;;;2.42;;
52434;SDS011;38354;52.892;6.148;2022-12-29T07:35:19;9.82;;;1.77;;
52434;SDS011;38354;52.892;6.148;2022-12-29T07:37:44;11.48;;;1.80;;
52434;SDS011;38354;52.892;6.148;2022-12-29T07:40:10;12.05;;;1.80;;
52434;SDS011;38354;52.892;6.148;2022-12-29T07:42:36;9.18;;;1.77;;
52434;SDS011;38354;52.892;6.148;2022-12-29T07:45:02;11.63;;;2.40;;
52434;SDS011;38354;52.892;6.148;2022-12-29T07:47:28;11.07;;;1.50;;
52434;SDS011;38354;52.892;6.148;2022-12-29T07:49:53;10.45;;;1.50;;
52434;SDS011;38354;52.892;6.148;2022-12-29T07:52:19;10.15;;;1.20;;
52434;SDS011;38354;52.892;6.148;2022-12-29T07:54:45;9.93;;;1.85;;
52434;SDS011;38354;52.892;6.148;2022-12-29T07:57:11;10.95;;;1.92;;
52434;SDS011;38354;52.892;6.148;2022-12-29T07:59:37;16.77;;;2.65;;
52434;SDS011;38354;52.892;6.148;2022-12-29T08:02:02;11.60;;;2.22;;
52434;SDS011;38354;52.892;6.148;2022-12-29T08:04:28;13.18;;;1.80;;
52434;SDS011;38354;52.892;6.148;2022-12-29T08:06:54;16.17;;;2.75;;
52434;SDS011;38354;52.892;6.148;2022-12-29T08:09:19;15.20;;;2.30;;
52434;SDS011;38354;52.892;6.148;2022-12-29T08:11:45;15.98;;;2.88;;
52434;SDS011;38354;52.892;6.148;2022-12-29T08:14:11;11.52;;;1.75;;
52434;SDS011;38354;52.892;6.148;2022-12-29T08:16:37;10.70;;;2.28;;
52434;SDS011;38354;52.892;6.148;2022-12-29T08:19:02;18.90;;;2.53;;
52434;SDS011;38354;52.892;6.148;2022-12-29T08:21:30;19.15;;;2.67;;
52434;SDS011;38354;52.892;6.148;2022-12-29T08:23:56;14.23;;;1.90;;
52434;SDS011;38354;52.892;6.148;2022-12-29T08:26:22;14.32;;;2.40;;
52434;SDS011;38354;52.892;6.148;2022-12-29T08:28:48;15.70;;;2.83;;
52434;SDS011;38354;52.892;6.148;2022-12-29T08:31:13;20.42;;;3.55;;
52434;SDS011;38354;52.892;6.148;2022-12-29T08:33:39;22.70;;;4.18;;
52434;SDS011;38354;52.892;6.148;2022-12-29T08:36:26;12.57;;;1.88;;
52434;SDS011;38354;52.892;6.148;2022-12-29T08:38:52;15.63;;;2.83;;
52434;SDS011;38354;52.892;6.148;2022-12-29T08:41:18;18.02;;;2.75;;
52434;SDS011;38354;52.892;6.148;2022-12-29T08:43:47;20.63;;;3.33;;
52434;SDS011;38354;52.892;6.148;2022-12-29T08:46:13;21.38;;;2.67;;
52434;SDS011;38354;52.892;6.148;2022-12-29T08:48:39;17.27;;;2.55;;
52434;SDS011;38354;52.892;6.148;2022-12-29T08:51:05;14.85;;;1.90;;
52434;SDS011;38354;52.892;6.148;2022-12-29T08:53:30;16.52;;;2.17;;
52434;SDS011;38354;52.892;6.148;2022-12-29T08:55:57;14.05;;;2.47;;
52434;SDS011;38354;52.892;6.148;2022-12-29T08:58:24;13.73;;;2.53;;
52434;SDS011;38354;52.892;6.148;2022-12-29T09:00:51;9.90;;;1.90;;
52434;SDS011;38354;52.892;6.148;2022-12-29T09:03:18;10.15;;;2.08;;
52434;SDS011;38354;52.892;6.148;2022-12-29T09:05:47;12.15;;;2.55;;
52434;SDS011;38354;52.892;6.148;2022-12-29T09:08:16;9.23;;;1.52;;
52434;SDS011;38354;52.892;6.148;2022-12-29T09:10:42;14.50;;;2.08;;
52434;SDS011;38354;52.892;6.148;2022-12-29T09:13:09;12.85;;;2.35;;
52434;SDS011;38354;52.892;6.148;2022-12-29T09:15:35;16.27;;;2.70;;
52434;SDS011;38354;52.892;6.148;2022-12-29T09:18:01;11.93;;;2.33;;
52434;SDS011;38354;52.892;6.148;2022-12-29T09:20:27;9.40;;;1.95;;
52434;SDS011;38354;52.892;6.148;2022-12-29T09:22:52;20.38;;;2.95;;
52434;SDS011;38354;52.892;6.148;2022-12-29T09:25:18;10.27;;;1.60;;
52434;SDS011;38354;52.892;6.148;2022-12-29T09:27:45;16.08;;;2.40;;
52434;SDS011;38354;52.892;6.148;2022-12-29T09:30:12;15.10;;;2.60;;
52434;SDS011;38354;52.892;6.148;2022-12-29T09:32:39;11.30;;;2.00;;
52434;SDS011;38354;52.892;6.148;2022-12-29T09:35:05;17.42;;;2.70;;
52434;SDS011;38354;52.892;6.148;2022-12-29T09:37:31;17.50;;;2.78;;
52434;SDS011;38354;52.892;6.148;2022-12-29T09:39:57;15.20;;;2.15;;
52434;SDS011;38354;52.892;6.148;2022-12-29T09:42:25;14.85;;;1.98;;
52434;SDS011;38354;52.892;6.148;2022-12-29T09:47:28;15.23;;;2.67;;
52434;SDS011;38354;52.892;6.148;2022-12-29T09:50:02;15.10;;;2.28;;
52434;SDS011;38354;52.892;6.148;2022-12-29T09:52:53;17.67;;;2.15;;
52434;SDS011;38354;52.892;6.148;2022-12-29T09:56:11;9.38;;;2.13;;
52434;SDS011;38354;52.892;6.148;2022-12-29T10:01:05;14.25;;;2.63;;
52434;SDS011;38354;52.892;6.148;2022-12-29T10:03:45;13.70;;;2.83;;
52434;SDS011;38354;52.892;6.148;2022-12-29T10:17:38;17.10;;;2.70;;
52434;SDS011;38354;52.892;6.148;2022-12-29T10:23:20;17.77;;;2.38;;
52434;SDS011;38354;52.892;6.148;2022-12-29T10:25:47;10.45;;;1.70;;
52434;SDS011;38354;52.892;6.148;2022-12-29T10:28:19;17.65;;;2.65;;
52434;SDS011;38354;52.892;6.148;2022-12-29T10:30:56;17.08;;;2.60;;
52434;SDS011;38354;52.892;6.148;2022-12-29T10:33:30;15.65;;;2.38;;
52434;SDS011;38354;52.892;6.148;2022-12-29T10:36:04;10.68;;;1.67;;
52434;SDS011;38354;52.892;6.148;2022-12-29T10:38:44;13.70;;;2.10;;
52434;SDS011;38354;52.892;6.148;2022-12-29T10:41:21;9.77;;;1.67;;
52434;SDS011;38354;52.892;6.148;2022-12-29T10:43:53;11.15;;;2.42;;
52434;SDS011;38354;52.892;6.148;2022-12-29T10:46:23;15.43;;;3.10;;
52434;SDS011;38354;52.892;6.148;2022-12-29T10:48:57;16.67;;;3.35;;
52434;SDS011;38354;52.892;6.148;2022-12-29T10:51:24;17.80;;;2.85;;
52434;SDS011;38354;52.892;6.148;2022-12-29T10:56:43;15.60;;;3.22;;
52434;SDS011;38354;52.892;6.148;2022-12-29T10:59:33;16.00;;;2.88;;
52434;SDS011;38354;52.892;6.148;2022-12-29T11:07:20;15.30;;;3.20;;
52434;SDS011;38354;52.892;6.148;2022-12-29T11:09:46;18.52;;;3.25;;
52434;SDS011;38354;52.892;6.148;2022-12-29T11:12:19;21.73;;;3.58;;
52434;SDS011;38354;52.892;6.148;2022-12-29T11:15:01;18.80;;;2.85;;
52434;SDS011;38354;52.892;6.148;2022-12-29T11:17:26;18.73;;;3.55;;
52434;SDS011;38354;52.892;6.148;2022-12-29T11:19:52;23.90;;;3.60;;
52434;SDS011;38354;52.892;6.148;2022-12-29T11:22:25;19.90;;;3.40;;
52434;SDS011;38354;52.892;6.148;2022-12-29T11:24:53;25.77;;;3.90;;
52434;SDS011;38354;52.892;6.148;2022-12-29T11:27:29;34.53;;;5.78;;
52434;SDS011;38354;52.892;6.148;2022-12-29T11:29:55;18.90;;;3.30;;
52434;SDS011;38354;52.892;6.148;2022-12-29T11:32:25;21.88;;;3.97;;
52434;SDS011;38354;52.892;6.148;2022-12-29T11:34:52;22.30;;;4.35;;
52434;SDS011;38354;52.892;6.148;2022-12-29T11:42:33;26.58;;;4.47;;
52434;SDS011;38354;52.892;6.148;2022-12-29T11:45:03;26.73;;;3.75;;
52434;SDS011;38354;52.892;6.148;2022-12-29T11:47:32;28.13;;;4.10;;
52434;SDS011;38354;52.892;6.148;2022-12-29T11:49:59;27.20;;;4.50;;
52434;SDS011;38354;52.892;6.148;2022-12-29T11:52:28;29.67;;;4.53;;
52434;SDS011;38354;52.892;6.148;2022-12-29T11:55:00;28.65;;;4.32;;
52434;SDS011;38354;52.892;6.148;2022-12-29T11:57:28;24.50;;;4.22;;
52434;SDS011;38354;52.892;6.148;2022-12-29T11:59:56;26.23;;;4.53;;
52434;SDS011;38354;52.892;6.148;2022-12-29T12:05:09;21.80;;;4.20;;
52434;SDS011;38354;52.892;6.148;2022-12-29T12:10:06;26.90;;;4.57;;
52434;SDS011;38354;52.892;6.148;2022-12-29T12:18:08;21.80;;;4.22;;
52434;SDS011;38354;52.892;6.148;2022-12-29T12:20:52;18.45;;;3.22;;
52434;SDS011;38354;52.892;6.148;2022-12-29T12:25:59;22.90;;;3.72;;
52434;SDS011;38354;52.892;6.148;2022-12-29T12:31:15;14.32;;;1.90;;
52434;SDS011;38354;52.892;6.148;2022-12-29T12:33:47;24.52;;;3.25;;
52434;SDS011;38354;52.892;6.148;2022-12-29T12:36:24;17.23;;;3.25;;
52434;SDS011;38354;52.892;6.148;2022-12-29T12:39:11;19.70;;;2.78;;
52434;SDS011;38354;52.892;6.148;2022-12-29T12:56:33;14.70;;;2.53;;
52434;SDS011;38354;52.892;6.148;2022-12-29T12:59:38;21.52;;;3.80;;
52434;SDS011;38354;52.892;6.148;2022-12-29T13:18:52;13.50;;;2.22;;
52434;SDS011;38354;52.892;6.148;2022-12-29T13:21:34;11.50;;;2.38;;
52434;SDS011;38354;52.892;6.148;2022-12-29T13:24:46;15.00;;;2.17;;
52434;SDS011;38354;52.892;6.148;2022-12-29T13:27:25;13.25;;;2.33;;
52434;SDS011;38354;52.892;6.148;2022-12-29T13:37:56;19.33;;;3.95;;
52434;SDS011;38354;52.892;6.148;2022-12-29T13:40:45;19.27;;;3.33;;
52434;SDS011;38354;52.892;6.148;2022-12-29T13:43:15;14.80;;;2.30;;
52434;SDS011;38354;52.892;6.148;2022-12-29T13:45:43;17.33;;;3.33;;
52434;SDS011;38354;52.892;6.148;2022-12-29T13:50:46;18.38;;;2.92;;
52434;SDS011;38354;52.892;6.148;2022-12-29T13:59:06;14.95;;;2.45;;
52434;SDS011;38354;52.892;6.148;2022-12-29T14:01:35;15.93;;;2.58;;
52434;SDS011;38354;52.892;6.148;2022-12-29T14:04:09;12.82;;;2.53;;
52434;SDS011;38354;52.892;6.148;2022-12-29T14:06:45;17.35;;;2.25;;
52434;SDS011;38354;52.892;6.148;2022-12-29T14:12:18;13.15;;;2.42;;
52434;SDS011;38354;52.892;6.148;2022-12-29T14:14:47;11.95;;;2.55;;
52434;SDS011;38354;52.892;6.148;2022-12-29T14:17:16;19.88;;;2.58;;
52434;SDS011;38354;52.892;6.148;2022-12-29T14:19:45;17.48;;;3.42;;
52434;SDS011;38354;52.892;6.148;2022-12-29T14:22:21;13.85;;;2.72;;
52434;SDS011;38354;52.892;6.148;2022-12-29T14:24:51;18.48;;;2.72;;
52434;SDS011;38354;52.892;6.148;2022-12-29T14:29:47;10.20;;;1.90;;
52434;SDS011;38354;52.892;6.148;2022-12-29T14:34:46;10.15;;;1.80;;
52434;SDS011;38354;52.892;6.148;2022-12-29T14:37:26;12.70;;;2.42;;
52434;SDS011;38354;52.892;6.148;2022-12-29T14:42:38;12.05;;;1.98;;
52434;SDS011;38354;52.892;6.148;2022-12-29T14:47:40;13.10;;;1.93;;
52434;SDS011;38354;52.892;6.148;2022-12-29T14:58:15;13.65;;;2.35;;
52434;SDS011;38354;52.892;6.148;2022-12-29T15:00:42;12.05;;;1.83;;
52434;SDS011;38354;52.892;6.148;2022-12-29T15:03:14;13.80;;;2.47;;
52434;SDS011;38354;52.892;6.148;2022-12-29T15:08:18;10.90;;;1.52;;
52434;SDS011;38354;52.892;6.148;2022-12-29T15:13:54;12.98;;;1.67;;
52434;SDS011;38354;52.892;6.148;2022-12-29T15:16:29;15.43;;;1.70;;
52434;SDS011;38354;52.892;6.148;2022-12-29T15:19:00;16.90;;;2.47;;
52434;SDS011;38354;52.892;6.148;2022-12-29T15:21:31;13.50;;;2.25;;
52434;SDS011;38354;52.892;6.148;2022-12-29T15:23:58;15.07;;;2.67;;
52434;SDS011;38354;52.892;6.148;2022-12-29T15:26:46;9.70;;;1.73;;
52434;SDS011;38354;52.892;6.148;2022-12-29T15:33:08;14.82;;;2.45;;
52434;SDS011;38354;52.892;6.148;2022-12-29T15:35:28;20.08;;;3.13;;
52434;SDS011;38354;52.892;6.148;2022-12-29T15:37:59;17.23;;;2.78;;
52434;SDS011;38354;52.892;6.148;2022-12-29T15:40:37;13.85;;;2.67;;
52434;SDS011;38354;52.892;6.148;2022-12-29T15:45:52;14.43;;;2.08;;
52434;SDS011;38354;52.892;6.148;2022-12-29T15:48:22;8.50;;;2.20;;
52434;SDS011;38354;52.892;6.148;2022-12-29T15:50:49;16.77;;;2.50;;
52434;SDS011;38354;52.892;6.148;2022-12-29T15:53:20;14.02;;;2.42;;
52434;SDS011;38354;52.892;6.148;2022-12-29T15:55:55;16.23;;;2.42;;
52434;SDS011;38354;52.892;6.148;2022-12-29T15:58:24;17.65;;;4.15;;
52434;SDS011;38354;52.892;6.148;2022-12-29T16:00:52;11.55;;;2.05;;
52434;SDS011;38354;52.892;6.148;2022-12-29T16:03:21;24.65;;;4.15;;
52434;SDS011;38354;52.892;6.148;2022-12-29T16:06:21;11.70;;;2.95;;
52434;SDS011;38354;52.892;6.148;2022-12-29T16:09:05;18.40;;;2.80;;
52434;SDS011;38354;52.892;6.148;2022-12-29T16:11:40;14.77;;;2.33;;
52434;SDS011;38354;52.892;6.148;2022-12-29T16:14:13;15.73;;;2.30;;
52434;SDS011;38354;52.892;6.148;2022-12-29T16:16:42;9.63;;;2.05;;
52434;SDS011;38354;52.892;6.148;2022-12-29T16:19:14;16.30;;;2.95;;
52434;SDS011;38354;52.892;6.148;2022-12-29T16:21:47;7.82;;;1.77;;
52434;SDS011;38354;52.892;6.148;2022-12-29T16:24:14;11.35;;;2.63;;
52434;SDS011;38354;52.892;6.148;2022-12-29T16:26:46;14.15;;;2.00;;
52434;SDS011;38354;52.892;6.148;2022-12-29T16:29:27;9.20;;;1.33;;
52434;SDS011;38354;52.892;6.148;2022-12-29T16:31:56;6.13;;;1.33;;
52434;SDS011;38354;52.892;6.148;2022-12-29T16:37:28;5.88;;;1.60;;
52434;SDS011;38354;52.892;6.148;2022-12-29T16:50:37;5.28;;;1.25;;
52434;SDS011;38354;52.892;6.148;2022-12-29T16:53:04;8.73;;;1.77;;
52434;SDS011;38354;52.892;6.148;2022-12-29T16:55:31;6.18;;;1.40;;
52434;SDS011;38354;52.892;6.148;2022-12-29T16:57:57;8.88;;;1.90;;
52434;SDS011;38354;52.892;6.148;2022-12-29T17:00:29;7.82;;;1.40;;
52434;SDS011;38354;52.892;6.148;2022-12-29T17:03:00;4.20;;;1.33;;
52434;SDS011;38354;52.892;6.148;2022-12-29T17:05:27;9.82;;;1.85;;
52434;SDS011;38354;52.892;6.148;2022-12-29T17:07:52;6.78;;;1.90;;
52434;SDS011;38354;52.892;6.148;2022-12-29T17:10:20;10.55;;;1.95;;
52434;SDS011;38354;52.892;6.148;2022-12-29T17:12:46;13.07;;;2.63;;
52434;SDS011;38354;52.892;6.148;2022-12-29T17:17:44;14.18;;;3.08;;
52434;SDS011;38354;52.892;6.148;2022-12-29T17:22:50;12.57;;;2.80;;
52434;SDS011;38354;52.892;6.148;2022-12-29T17:25:23;17.92;;;3.60;;
52434;SDS011;38354;52.892;6.148;2022-12-29T17:28:21;15.10;;;3.03;;
52434;SDS011;38354;52.892;6.148;2022-12-29T17:30:49;16.25;;;4.25;;
52434;SDS011;38354;52.892;6.148;2022-12-29T17:33:17;15.85;;;3.97;;
52434;SDS011;38354;52.892;6.148;2022-12-29T17:35:44;17.73;;;5.25;;
52434;SDS011;38354;52.892;6.148;2022-12-29T17:38:20;15.82;;;4.25;;
52434;SDS011;38354;52.892;6.148;2022-12-29T17:40:53;13.48;;;2.72;;
52434;SDS011;38354;52.892;6.148;2022-12-29T17:43:19;14.80;;;2.95;;
52434;SDS011;38354;52.892;6.148;2022-12-29T17:45:46;15.20;;;2.90;;
52434;SDS011;38354;52.892;6.148;2022-12-29T17:48:16;22.77;;;5.15;;
52434;SDS011;38354;52.892;6.148;2022-12-29T17:50:43;21.10;;;5.32;;
52434;SDS011;38354;52.892;6.148;2022-12-29T17:53:12;15.88;;;3.67;;
52434;SDS011;38354;52.892;6.148;2022-12-29T17:55:40;16.95;;;3.97;;
52434;SDS011;38354;52.892;6.148;2022-12-29T17:58:16;16.83;;;3.80;;
52434;SDS011;38354;52.892;6.148;2022-12-29T18:00:44;14.27;;;3.15;;
52434;SDS011;38354;52.892;6.148;2022-12-29T18:03:13;15.02;;;3.78;;
52434;SDS011;38354;52.892;6.148;2022-12-29T18:05:40;15.07;;;2.92;;
52434;SDS011;38354;52.892;6.148;2022-12-29T18:08:08;19.15;;;3.47;;
52434;SDS011;38354;52.892;6.148;2022-12-29T18:10:35;14.95;;;3.20;;
52434;SDS011;38354;52.892;6.148;2022-12-29T18:13:00;17.70;;;3.15;;
52434;SDS011;38354;52.892;6.148;2022-12-29T18:15:31;19.33;;;3.50;;
52434;SDS011;38354;52.892;6.148;2022-12-29T18:18:18;12.27;;;2.58;;
52434;SDS011;38354;52.892;6.148;2022-12-29T18:20:45;13.77;;;2.67;;
52434;SDS011;38354;52.892;6.148;2022-12-29T18:23:23;10.05;;;2.30;;
52434;SDS011;38354;52.892;6.148;2022-12-29T18:25:56;13.48;;;2.70;;
52434;SDS011;38354;52.892;6.148;2022-12-29T18:28:25;14.95;;;2.80;;
52434;SDS011;38354;52.892;6.148;2022-12-29T18:30:51;18.75;;;3.42;;
52434;SDS011;38354;52.892;6.148;2022-12-29T18:33:18;13.95;;;2.00;;
52434;SDS011;38354;52.892;6.148;2022-12-29T18:35:51;14.65;;;2.47;;
52434;SDS011;38354;52.892;6.148;2022-12-29T18:38:21;22.15;;;3.78;;
52434;SDS011;38354;52.892;6.148;2022-12-29T18:40:47;15.73;;;2.80;;
52434;SDS011;38354;52.892;6.148;2022-12-29T18:43:14;14.23;;;2.55;;
52434;SDS011;38354;52.892;6.148;2022-12-29T18:45:41;12.75;;;2.17;;
52434;SDS011;38354;52.892;6.148;2022-12-29T18:48:09;12.98;;;2.00;;
52434;SDS011;38354;52.892;6.148;2022-12-29T18:50:36;19.30;;;4.18;;
52434;SDS011;38354;52.892;6.148;2022-12-29T18:53:01;21.95;;;3.33;;
52434;SDS011;38354;52.892;6.148;2022-12-29T18:55:27;16.95;;;2.50;;
52434;SDS011;38354;52.892;6.148;2022-12-29T18:57:53;15.50;;;2.40;;
52434;SDS011;38354;52.892;6.148;2022-12-29T19:00:20;13.35;;;2.95;;
52434;SDS011;38354;52.892;6.148;2022-12-29T19:02:46;15.40;;;4.05;;
52434;SDS011;38354;52.892;6.148;2022-12-29T19:07:50;15.50;;;2.83;;
52434;SDS011;38354;52.892;6.148;2022-12-29T19:10:17;13.43;;;2.85;;
52434;SDS011;38354;52.892;6.148;2022-12-29T19:12:44;12.93;;;2.50;;
52434;SDS011;38354;52.892;6.148;2022-12-29T19:17:49;10.45;;;2.30;;
52434;SDS011;38354;52.892;6.148;2022-12-29T19:22:56;25.10;;;4.93;;
52434;SDS011;38354;52.892;6.148;2022-12-29T19:25:23;17.88;;;2.53;;
52434;SDS011;38354;52.892;6.148;2022-12-29T19:27:49;15.75;;;2.72;;
52434;SDS011;38354;52.892;6.148;2022-12-29T19:30:16;12.90;;;2.60;;
52434;SDS011;38354;52.892;6.148;2022-12-29T19:32:42;23.35;;;3.47;;
52434;SDS011;38354;52.892;6.148;2022-12-29T19:35:08;18.77;;;2.70;;
52434;SDS011;38354;52.892;6.148;2022-12-29T19:37:35;17.73;;;2.97;;
52434;SDS011;38354;52.892;6.148;2022-12-29T19:40:04;10.85;;;2.25;;
52434;SDS011;38354;52.892;6.148;2022-12-29T19:42:31;21.15;;;3.30;;
52434;SDS011;38354;52.892;6.148;2022-12-29T19:44:57;12.15;;;2.60;;
52434;SDS011;38354;52.892;6.148;2022-12-29T19:47:22;20.00;;;3.33;;
52434;SDS011;38354;52.892;6.148;2022-12-29T19:49:48;26.63;;;4.40;;
52434;SDS011;38354;52.892;6.148;2022-12-29T19:52:14;20.30;;;2.90;;
52434;SDS011;38354;52.892;6.148;2022-12-29T19:54:39;15.00;;;2.50;;
52434;SDS011;38354;52.892;6.148;2022-12-29T19:57:05;23.05;;;3.63;;
52434;SDS011;38354;52.892;6.148;2022-12-29T19:59:31;20.80;;;4.10;;
52434;SDS011;38354;52.892;6.148;2022-12-29T20:01:56;21.02;;;3.63;;
52434;SDS011;38354;52.892;6.148;2022-12-29T20:04:22;17.75;;;4.20;;
52434;SDS011;38354;52.892;6.148;2022-12-29T20:06:48;19.88;;;3.88;;
52434;SDS011;38354;52.892;6.148;2022-12-29T20:09:13;14.88;;;2.50;;
52434;SDS011;38354;52.892;6.148;2022-12-29T20:11:39;14.98;;;2.42;;
52434;SDS011;38354;52.892;6.148;2022-12-29T20:14:05;22.33;;;3.45;;
52434;SDS011;38354;52.892;6.148;2022-12-29T20:16:30;18.30;;;3.03;;
52434;SDS011;38354;52.892;6.148;2022-12-29T20:18:56;26.88;;;5.60;;
52434;SDS011;38354;52.892;6.148;2022-12-29T20:21:23;13.93;;;2.35;;
52434;SDS011;38354;52.892;6.148;2022-12-29T20:23:50;15.32;;;2.75;;
52434;SDS011;38354;52.892;6.148;2022-12-29T20:26:17;18.10;;;2.83;;
52434;SDS011;38354;52.892;6.148;2022-12-29T20:28:48;17.65;;;3.03;;
52434;SDS011;38354;52.892;6.148;2022-12-29T20:31:16;18.80;;;3.63;;
52434;SDS011;38354;52.892;6.148;2022-12-29T20:33:44;16.35;;;2.35;;
52434;SDS011;38354;52.892;6.148;2022-12-29T20:36:11;21.65;;;3.83;;
52434;SDS011;38354;52.892;6.148;2022-12-29T20:38:40;20.42;;;3.17;;
52434;SDS011;38354;52.892;6.148;2022-12-29T20:41:06;13.98;;;3.35;;
52434;SDS011;38354;52.892;6.148;2022-12-29T20:43:33;13.88;;;2.78;;
52434;SDS011;38354;52.892;6.148;2022-12-29T20:45:59;18.15;;;2.95;;
52434;SDS011;38354;52.892;6.148;2022-12-29T20:48:24;17.30;;;3.05;;
52434;SDS011;38354;52.892;6.148;2022-12-29T20:50:50;14.43;;;2.72;;
52434;SDS011;38354;52.892;6.148;2022-12-29T20:53:16;19.67;;;2.60;;
52434;SDS011;38354;52.892;6.148;2022-12-29T20:55:42;18.67;;;3.65;;
52434;SDS011;38354;52.892;6.148;2022-12-29T20:58:07;21.08;;;3.55;;
52434;SDS011;38354;52.892;6.148;2022-12-29T21:00:33;19.40;;;3.30;;
52434;SDS011;38354;52.892;6.148;2022-12-29T21:02:59;26.33;;;3.30;;
52434;SDS011;38354;52.892;6.148;2022-12-29T21:05:25;24.02;;;3.85;;
52434;SDS011;38354;52.892;6.148;2022-12-29T21:07:54;23.90;;;3.38;;
52434;SDS011;38354;52.892;6.148;2022-12-29T21:10:23;18.73;;;3.42;;
52434;SDS011;38354;52.892;6.148;2022-12-29T21:12:49;29.65;;;3.40;;
52434;SDS011;38354;52.892;6.148;2022-12-29T21:15:14;22.75;;;3.20;;
52434;SDS011;38354;52.892;6.148;2022-12-29T21:17:41;22.10;;;3.53;;
52434;SDS011;38354;52.892;6.148;2022-12-29T21:20:07;21.95;;;4.10;;
52434;SDS011;38354;52.892;6.148;2022-12-29T21:22:33;20.27;;;4.25;;
52434;SDS011;38354;52.892;6.148;2022-12-29T21:24:59;22.65;;;3.33;;